Terminal Aerodrome Forecast
Issued by NWS Cleveland, OH

Home | Current Version | Previous Version | Graphics & Text | Print | Product List | Glossary On
Versions: 1 2 3 4 5 6 7 8 9 10 11 12 13 14 15 16 17 18
411
FTUS41 KCLE 282332
TAFERI
TAF
KERI 282332Z 2900/2924 18010KT P6SM VCTS SCT035CB BKN050
      TEMPO 2900/2903 VRB20G35KT 2SM -TSRA BKN025CB OVC040
     FM290400 25010KT 6SM -SHRA OVC025
     FM290800 25010KT P6SM SCT025 OVC040
     FM291500 25010KT P6SM SCT040=

USA.gov is the U.S. government's official web portal to all federal, state and local government web resources and services.